sensor_id;sensor_type;location;lat;lon;timestamp;pressure;altitude;pressure_sealevel;temperature;humidity
59063;BME280;44851;45.648;9.004;2023-02-23T04:16:06;98836.84;;;9.40;69.11
59063;BME280;44851;45.648;9.004;2023-02-23T07:46:07;98933.13;;;9.79;70.49
59063;BME280;44851;45.648;9.004;2023-02-23T07:48:33;98926.53;;;9.75;69.94
59063;BME280;44851;45.648;9.004;2023-02-23T07:50:59;98926.56;;;9.85;70.55
59063;BME280;44851;45.648;9.004;2023-02-23T07:53:24;98929.31;;;9.93;70.75
59063;BME280;44851;45.648;9.004;2023-02-23T07:55:58;98931.91;;;10.02;70.09
59063;BME280;44851;45.648;9.004;2023-02-23T07:58:25;98934.78;;;10.09;70.58
59063;BME280;44851;45.648;9.004;2023-02-23T08:00:51;98938.88;;;10.21;70.87
59063;BME280;44851;45.648;9.004;2023-02-23T08:03:17;98933.81;;;10.29;69.85
59063;BME280;44851;45.648;9.004;2023-02-23T08:05:42;98937.50;;;10.37;68.60
59063;BME280;44851;45.648;9.004;2023-02-23T08:08:09;98934.50;;;10.31;68.77
59063;BME280;44851;45.648;9.004;2023-02-23T08:10:35;98935.28;;;10.51;68.37
59063;BME280;44851;45.648;9.004;2023-02-23T08:13:01;98936.25;;;10.50;68.08
59063;BME280;44851;45.648;9.004;2023-02-23T08:15:26;98934.97;;;10.64;69.09
59063;BME280;44851;45.648;9.004;2023-02-23T08:17:52;98926.19;;;10.75;68.89
59063;BME280;44851;45.648;9.004;2023-02-23T08:20:17;98930.66;;;10.92;67.67
59063;BME280;44851;45.648;9.004;2023-02-23T08:22:43;98929.09;;;11.09;67.44
59063;BME280;44851;45.648;9.004;2023-02-23T08:25:09;98935.56;;;11.05;66.84
59063;BME280;44851;45.648;9.004;2023-02-23T08:27:35;98934.97;;;11.38;68.20
59063;BME280;44851;45.648;9.004;2023-02-23T08:30:01;98935.84;;;11.29;65.96
59063;BME280;44851;45.648;9.004;2023-02-23T08:32:30;98937.38;;;11.50;65.62
59063;BME280;44851;45.648;9.004;2023-02-23T08:34:59;98934.69;;;11.42;66.14
59063;BME280;44851;45.648;9.004;2023-02-23T08:37:27;98932.63;;;11.63;66.39
59063;BME280;44851;45.648;9.004;2023-02-23T08:39:54;98931.44;;;11.75;65.49
59063;BME280;44851;45.648;9.004;2023-02-23T08:42:19;98932.94;;;11.96;65.42
59063;BME280;44851;45.648;9.004;2023-02-23T08:44:45;98936.25;;;11.98;64.63
59063;BME280;44851;45.648;9.004;2023-02-23T08:47:10;98943.84;;;12.09;65.43
59063;BME280;44851;45.648;9.004;2023-02-23T08:49:36;98939.38;;;12.19;65.71
59063;BME280;44851;45.648;9.004;2023-02-23T08:52:01;98944.59;;;12.37;65.67
59063;BME280;44851;45.648;9.004;2023-02-23T08:54:27;98942.19;;;12.43;64.12
59063;BME280;44851;45.648;9.004;2023-02-23T08:56:55;98949.97;;;12.61;64.74
59063;BME280;44851;45.648;9.004;2023-02-23T08:59:21;98945.56;;;12.62;63.00
59063;BME280;44851;45.648;9.004;2023-02-23T09:01:46;98941.09;;;12.80;62.59
59063;BME280;44851;45.648;9.004;2023-02-23T09:04:12;98947.34;;;12.87;63.05
59063;BME280;44851;45.648;9.004;2023-02-23T09:06:37;98944.16;;;13.02;62.60
59063;BME280;44851;45.648;9.004;2023-02-23T09:09:03;98939.69;;;13.20;61.09
59063;BME280;44851;45.648;9.004;2023-02-23T09:11:28;98951.19;;;13.27;60.84
59063;BME280;44851;45.648;9.004;2023-02-23T09:13:54;98944.03;;;13.45;60.91
59063;BME280;44851;45.648;9.004;2023-02-23T09:16:19;98947.34;;;13.56;60.31
59063;BME280;44851;45.648;9.004;2023-02-23T09:18:45;98944.72;;;13.56;58.90
59063;BME280;44851;45.648;9.004;2023-02-23T09:21:16;98949.00;;;13.65;58.36
59063;BME280;44851;45.648;9.004;2023-02-23T09:23:43;98941.16;;;13.73;59.33
59063;BME280;44851;45.648;9.004;2023-02-23T09:26:11;98937.25;;;13.93;58.00
59063;BME280;44851;45.648;9.004;2023-02-23T09:28:37;98942.00;;;13.98;56.67
59063;BME280;44851;45.648;9.004;2023-02-23T09:31:05;98942.00;;;13.90;56.85
59063;BME280;44851;45.648;9.004;2023-02-23T09:33:31;98941.19;;;14.14;57.30
59063;BME280;44851;45.648;9.004;2023-02-23T09:35:57;98936.31;;;14.35;57.37
59063;BME280;44851;45.648;9.004;2023-02-23T09:38:22;98945.16;;;14.50;56.91
59063;BME280;44851;45.648;9.004;2023-02-23T09:40:50;98939.91;;;14.50;56.85
59063;BME280;44851;45.648;9.004;2023-02-23T09:46:21;98940.06;;;14.57;53.90
59063;BME280;44851;45.648;9.004;2023-02-23T09:48:51;98948.75;;;14.66;54.50
59063;BME280;44851;45.648;9.004;2023-02-23T09:51:20;98948.03;;;14.88;55.63
59063;BME280;44851;45.648;9.004;2023-02-23T09:53:52;98948.97;;;14.95;54.84
59063;BME280;44851;45.648;9.004;2023-02-23T09:56:38;98943.41;;;14.98;53.36
59063;BME280;44851;45.648;9.004;2023-02-23T09:59:06;98939.72;;;15.16;53.10
59063;BME280;44851;45.648;9.004;2023-02-23T10:04:49;98949.03;;;14.79;53.00
59063;BME280;44851;45.648;9.004;2023-02-23T10:07:20;98950.25;;;14.44;54.09
59063;BME280;44851;45.648;9.004;2023-02-23T10:22:56;98944.09;;;14.92;50.46
59063;BME280;44851;45.648;9.004;2023-02-23T10:25:26;98943.31;;;15.31;51.77
59063;BME280;44851;45.648;9.004;2023-02-23T10:27:53;98941.38;;;15.56;51.29
59063;BME280;44851;45.648;9.004;2023-02-23T10:30:22;98942.94;;;15.34;51.35
59063;BME280;44851;45.648;9.004;2023-02-23T10:33:19;98943.59;;;14.89;50.32
59063;BME280;44851;45.648;9.004;2023-02-23T10:35:41;98946.91;;;14.74;51.47
59063;BME280;44851;45.648;9.004;2023-02-23T10:38:13;98943.50;;;14.66;51.74
59063;BME280;44851;45.648;9.004;2023-02-23T10:40:40;98942.19;;;14.62;51.61
59063;BME280;44851;45.648;9.004;2023-02-23T10:43:05;98941.00;;;14.64;52.26
59063;BME280;44851;45.648;9.004;2023-02-23T10:45:36;98947.41;;;14.78;51.69
59063;BME280;44851;45.648;9.004;2023-02-23T10:48:07;98943.00;;;15.18;50.71
59063;BME280;44851;45.648;9.004;2023-02-23T10:50:36;98940.69;;;15.31;50.07
59063;BME280;44851;45.648;9.004;2023-02-23T10:53:15;98932.84;;;15.54;51.40
59063;BME280;44851;45.648;9.004;2023-02-23T10:55:45;98934.84;;;15.52;49.61
59063;BME280;44851;45.648;9.004;2023-02-23T10:58:18;98932.50;;;15.57;48.89
59063;BME280;44851;45.648;9.004;2023-02-23T11:00:56;98922.22;;;15.47;48.69
59063;BME280;44851;45.648;9.004;2023-02-23T11:03:32;98926.75;;;15.30;49.60
59063;BME280;44851;45.648;9.004;2023-02-23T11:05:59;98930.69;;;15.26;49.75
59063;BME280;44851;45.648;9.004;2023-02-23T11:08:33;98931.34;;;15.60;48.72
59063;BME280;44851;45.648;9.004;2023-02-23T11:13:28;98926.44;;;16.02;47.10
59063;BME280;44851;45.648;9.004;2023-02-23T11:15:59;98922.00;;;16.03;46.33
59063;BME280;44851;45.648;9.004;2023-02-23T11:18:26;98923.41;;;16.37;47.32
59063;BME280;44851;45.648;9.004;2023-02-23T11:20:52;98924.75;;;16.09;46.83
59063;BME280;44851;45.648;9.004;2023-02-23T11:23:32;98928.06;;;16.03;47.13
59063;BME280;44851;45.648;9.004;2023-02-23T11:26:01;98919.91;;;15.75;45.84
59063;BME280;44851;45.648;9.004;2023-02-23T11:28:32;98919.69;;;15.85;46.52
59063;BME280;44851;45.648;9.004;2023-02-23T11:31:02;98915.34;;;15.69;46.45
59063;BME280;44851;45.648;9.004;2023-02-23T11:33:32;98917.78;;;15.71;47.01
59063;BME280;44851;45.648;9.004;2023-02-23T11:36:13;98912.72;;;15.38;45.80
59063;BME280;44851;45.648;9.004;2023-02-23T11:38:39;98910.78;;;15.40;47.67
59063;BME280;44851;45.648;9.004;2023-02-23T11:41:31;98909.19;;;15.23;47.90
59063;BME280;44851;45.648;9.004;2023-02-23T11:44:00;98910.16;;;15.30;47.37
59063;BME280;44851;45.648;9.004;2023-02-23T11:46:28;98905.06;;;15.28;47.98
59063;BME280;44851;45.648;9.004;2023-02-23T11:49:08;98899.66;;;15.30;46.76
59063;BME280;44851;45.648;9.004;2023-02-23T11:51:40;98892.25;;;15.34;44.45
59063;BME280;44851;45.648;9.004;2023-02-23T11:54:48;98893.78;;;15.20;45.26
59063;BME280;44851;45.648;9.004;2023-02-23T11:57:24;98893.59;;;15.21;46.48
59063;BME280;44851;45.648;9.004;2023-02-23T11:59:51;98890.84;;;15.15;47.57
59063;BME280;44851;45.648;9.004;2023-02-23T12:02:32;98892.97;;;15.19;47.04
59063;BME280;44851;45.648;9.004;2023-02-23T12:05:17;98888.34;;;15.29;46.19
59063;BME280;44851;45.648;9.004;2023-02-23T12:21:43;98865.50;;;14.91;47.08
59063;BME280;44851;45.648;9.004;2023-02-23T12:27:16;98860.88;;;15.01;48.07
59063;BME280;44851;45.648;9.004;2023-02-23T12:30:02;98867.13;;;15.00;48.03
59063;BME280;44851;45.648;9.004;2023-02-23T12:32:48;98868.50;;;14.79;48.03
59063;BME280;44851;45.648;9.004;2023-02-23T12:37:52;98862.94;;;14.74;48.19
59063;BME280;44851;45.648;9.004;2023-02-23T12:40:27;98855.63;;;14.62;48.90
59063;BME280;44851;45.648;9.004;2023-02-23T12:43:20;98866.00;;;14.86;49.88
59063;BME280;44851;45.648;9.004;2023-02-23T12:53:44;98850.25;;;14.94;47.62
59063;BME280;44851;45.648;9.004;2023-02-23T12:59:19;98850.44;;;14.93;47.14
59063;BME280;44851;45.648;9.004;2023-02-23T13:01:53;98846.38;;;14.82;46.70
59063;BME280;44851;45.648;9.004;2023-02-23T13:07:20;98842.84;;;14.98;46.76
59063;BME280;44851;45.648;9.004;2023-02-23T13:17:49;98847.47;;;15.27;46.87
59063;BME280;44851;45.648;9.004;2023-02-23T13:28:38;98839.47;;;15.51;46.51
59063;BME280;44851;45.648;9.004;2023-02-23T13:31:18;98841.59;;;15.48;46.90
59063;BME280;44851;45.648;9.004;2023-02-23T13:33:46;98835.13;;;15.36;47.86
59063;BME280;44851;45.648;9.004;2023-02-23T13:36:12;98840.25;;;15.29;48.72
59063;BME280;44851;45.648;9.004;2023-02-23T13:44:54;98836.91;;;15.04;48.52
59063;BME280;44851;45.648;9.004;2023-02-23T13:49:56;98835.81;;;14.90;48.11
59063;BME280;44851;45.648;9.004;2023-02-23T13:52:36;98833.81;;;15.00;47.77
59063;BME280;44851;45.648;9.004;2023-02-23T14:00:21;98827.38;;;14.72;48.17
59063;BME280;44851;45.648;9.004;2023-02-23T14:02:47;98831.94;;;14.78;49.04
59063;BME280;44851;45.648;9.004;2023-02-23T14:05:22;98829.97;;;14.80;48.42
59063;BME280;44851;45.648;9.004;2023-02-23T14:07:58;98833.31;;;14.66;49.12
59063;BME280;44851;45.648;9.004;2023-02-23T14:10:37;98827.06;;;14.67;48.87
59063;BME280;44851;45.648;9.004;2023-02-23T14:18:05;98829.72;;;14.59;50.12
59063;BME280;44851;45.648;9.004;2023-02-23T14:21:13;98831.38;;;14.51;49.18
59063;BME280;44851;45.648;9.004;2023-02-23T14:31:34;98833.19;;;14.43;51.19
59063;BME280;44851;45.648;9.004;2023-02-23T14:34:06;98840.75;;;14.46;51.24
59063;BME280;44851;45.648;9.004;2023-02-23T14:36:35;98834.69;;;14.37;50.98
59063;BME280;44851;45.648;9.004;2023-02-23T14:39:06;98828.44;;;14.46;50.92
59063;BME280;44851;45.648;9.004;2023-02-23T14:41:45;98828.78;;;14.43;50.36
59063;BME280;44851;45.648;9.004;2023-02-23T14:44:23;98831.56;;;14.50;51.73
59063;BME280;44851;45.648;9.004;2023-02-23T14:49:20;98825.56;;;14.25;50.54
59063;BME280;44851;45.648;9.004;2023-02-23T14:52:07;98822.28;;;14.23;50.75
59063;BME280;44851;45.648;9.004;2023-02-23T14:54:36;98821.63;;;14.29;51.41
59063;BME280;44851;45.648;9.004;2023-02-23T14:57:22;98817.19;;;14.21;50.27
59063;BME280;44851;45.648;9.004;2023-02-23T14:59:59;98821.28;;;14.16;50.50
59063;BME280;44851;45.648;9.004;2023-02-23T15:02:27;98824.25;;;14.21;51.15
59063;BME280;44851;45.648;9.004;2023-02-23T15:04:53;98820.13;;;14.26;51.43
59063;BME280;44851;45.648;9.004;2023-02-23T15:07:52;98826.38;;;14.09;51.26
59063;BME280;44851;45.648;9.004;2023-02-23T15:10:59;98815.38;;;14.22;50.26
59063;BME280;44851;45.648;9.004;2023-02-23T15:13:34;98820.16;;;14.02;50.62
59063;BME280;44851;45.648;9.004;2023-02-23T15:16:06;98822.59;;;14.20;51.42
59063;BME280;44851;45.648;9.004;2023-02-23T15:18:37;98820.13;;;14.26;50.81
59063;BME280;44851;45.648;9.004;2023-02-23T15:21:16;98820.63;;;14.06;50.46
59063;BME280;44851;45.648;9.004;2023-02-23T15:23:48;98821.94;;;14.18;50.84
59063;BME280;44851;45.648;9.004;2023-02-23T15:26:49;98819.81;;;14.05;51.38
59063;BME280;44851;45.648;9.004;2023-02-23T15:29:18;98820.47;;;13.99;51.74
59063;BME280;44851;45.648;9.004;2023-02-23T15:31:46;98818.00;;;14.14;51.85
59063;BME280;44851;45.648;9.004;2023-02-23T15:34:18;98818.00;;;14.14;51.71
59063;BME280;44851;45.648;9.004;2023-02-23T15:36:51;98821.75;;;14.19;51.40
59063;BME280;44851;45.648;9.004;2023-02-23T15:39:24;98819.00;;;14.13;50.93
59063;BME280;44851;45.648;9.004;2023-02-23T15:41:55;98819.63;;;14.15;51.58
59063;BME280;44851;45.648;9.004;2023-02-23T15:44:23;98819.63;;;14.15;51.96
59063;BME280;44851;45.648;9.004;2023-02-23T15:46:59;98823.91;;;14.08;51.12
59063;BME280;44851;45.648;9.004;2023-02-23T15:49:31;98818.00;;;14.14;50.17
59063;BME280;44851;45.648;9.004;2023-02-23T15:52:00;98813.44;;;13.99;50.17
59063;BME280;44851;45.648;9.004;2023-02-23T15:54:30;98817.84;;;14.15;51.07
59063;BME280;44851;45.648;9.004;2023-02-23T15:57:01;98818.00;;;14.06;50.21
59063;BME280;44851;45.648;9.004;2023-02-23T15:59:29;98817.69;;;14.09;51.27
59063;BME280;44851;45.648;9.004;2023-02-23T16:01:57;98819.03;;;13.96;51.09
59063;BME280;44851;45.648;9.004;2023-02-23T16:04:32;98818.69;;;13.91;51.17
59063;BME280;44851;45.648;9.004;2023-02-23T16:09:36;98825.88;;;13.89;51.82
59063;BME280;44851;45.648;9.004;2023-02-23T16:12:08;98827.19;;;13.93;51.91
59063;BME280;44851;45.648;9.004;2023-02-23T16:14:47;98830.81;;;13.92;51.35
59063;BME280;44851;45.648;9.004;2023-02-23T16:20:09;98820.00;;;13.79;51.08
59063;BME280;44851;45.648;9.004;2023-02-23T16:22:37;98821.00;;;13.70;52.69
59063;BME280;44851;45.648;9.004;2023-02-23T16:25:12;98818.06;;;13.65;52.16
59063;BME280;44851;45.648;9.004;2023-02-23T16:27:38;98812.16;;;13.71;53.53
59063;BME280;44851;45.648;9.004;2023-02-23T16:32:40;98819.50;;;13.35;53.49
59063;BME280;44851;45.648;9.004;2023-02-23T16:35:16;98808.53;;;13.56;52.41
59063;BME280;44851;45.648;9.004;2023-02-23T16:38:00;98814.75;;;13.46;52.43
59063;BME280;44851;45.648;9.004;2023-02-23T16:40:26;98815.41;;;13.40;54.13
59063;BME280;44851;45.648;9.004;2023-02-23T16:42:52;98804.94;;;13.57;54.00
59063;BME280;44851;45.648;9.004;2023-02-23T16:45:17;98814.09;;;13.53;54.30
59063;BME280;44851;45.648;9.004;2023-02-23T16:47:44;98808.38;;;13.57;55.02
59063;BME280;44851;45.648;9.004;2023-02-23T16:50:17;98808.38;;;13.57;54.84
59063;BME280;44851;45.648;9.004;2023-02-23T16:52:47;98809.22;;;13.66;54.77
59063;BME280;44851;45.648;9.004;2023-02-23T16:55:17;98811.81;;;13.66;54.94
59063;BME280;44851;45.648;9.004;2023-02-23T16:57:47;98811.34;;;13.70;54.64
59063;BME280;44851;45.648;9.004;2023-02-23T17:00:22;98810.19;;;13.65;54.69
59063;BME280;44851;45.648;9.004;2023-02-23T17:02:49;98811.16;;;13.64;55.10
59063;BME280;44851;45.648;9.004;2023-02-23T17:05:17;98814.44;;;13.58;55.35
59063;BME280;44851;45.648;9.004;2023-02-23T17:07:44;98814.09;;;13.53;55.50
59063;BME280;44851;45.648;9.004;2023-02-23T17:10:17;98820.00;;;13.46;55.44
59063;BME280;44851;45.648;9.004;2023-02-23T17:13:14;98816.38;;;13.31;54.51
59063;BME280;44851;45.648;9.004;2023-02-23T17:15:42;98818.97;;;13.31;55.65
59063;BME280;44851;45.648;9.004;2023-02-23T17:18:16;98821.78;;;13.21;56.00
59063;BME280;44851;45.648;9.004;2023-02-23T17:20:43;98828.13;;;13.19;56.24
59063;BME280;44851;45.648;9.004;2023-02-23T17:23:08;98827.00;;;13.21;56.38
59063;BME280;44851;45.648;9.004;2023-02-23T17:25:34;98830.41;;;13.14;56.02
59063;BME280;44851;45.648;9.004;2023-02-23T17:28:00;98830.09;;;13.17;56.27
59063;BME280;44851;45.648;9.004;2023-02-23T17:30:26;98831.38;;;13.21;55.97
59063;BME280;44851;45.648;9.004;2023-02-23T17:32:54;98840.56;;;13.25;56.19
59063;BME280;44851;45.648;9.004;2023-02-23T17:35:20;98835.25;;;13.09;56.67
59063;BME280;44851;45.648;9.004;2023-02-23T17:37:46;98839.88;;;13.15;56.27
59063;BME280;44851;45.648;9.004;2023-02-23T17:40:14;98844.41;;;13.05;56.26
59063;BME280;44851;45.648;9.004;2023-02-23T17:42:40;98844.69;;;12.93;56.59
59063;BME280;44851;45.648;9.004;2023-02-23T17:45:07;98847.66;;;12.99;56.47
59063;BME280;44851;45.648;9.004;2023-02-23T17:47:34;98849.63;;;12.96;56.80
59063;BME280;44851;45.648;9.004;2023-02-23T17:50:00;98853.53;;;12.92;56.78
59063;BME280;44851;45.648;9.004;2023-02-23T17:52:27;98862.66;;;12.88;56.92
59063;BME280;44851;45.648;9.004;2023-02-23T17:54:53;98864.00;;;12.92;57.16
59063;BME280;44851;45.648;9.004;2023-02-23T17:57:20;98867.69;;;12.82;56.83
59063;BME280;44851;45.648;9.004;2023-02-23T17:59:46;98864.56;;;12.70;56.88
59063;BME280;44851;45.648;9.004;2023-02-23T18:02:16;98867.13;;;12.62;56.34
59063;BME280;44851;45.648;9.004;2023-02-23T18:04:43;98859.31;;;12.70;56.19
59063;BME280;44851;45.648;9.004;2023-02-23T18:07:09;98869.44;;;12.73;57.32
59063;BME280;44851;45.648;9.004;2023-02-23T18:09:36;98865.88;;;12.74;57.01
59063;BME280;44851;45.648;9.004;2023-02-23T18:12:02;98866.06;;;12.81;57.21
59063;BME280;44851;45.648;9.004;2023-02-23T18:14:28;98864.31;;;12.89;56.55
59063;BME280;44851;45.648;9.004;2023-02-23T18:16:54;98861.34;;;12.84;56.51
59063;BME280;44851;45.648;9.004;2023-02-23T18:19:22;98867.19;;;12.78;56.99
59063;BME280;44851;45.648;9.004;2023-02-23T18:21:48;98870.44;;;12.72;57.00
59063;BME280;44851;45.648;9.004;2023-02-23T18:24:14;98878.88;;;12.58;57.20
59063;BME280;44851;45.648;9.004;2023-02-23T18:26:40;98876.84;;;12.52;57.27
59063;BME280;44851;45.648;9.004;2023-02-23T18:29:06;98877.28;;;12.39;57.35
59063;BME280;44851;45.648;9.004;2023-02-23T18:31:32;98885.75;;;12.33;57.92
59063;BME280;44851;45.648;9.004;2023-02-23T18:33:59;98888.03;;;12.36;58.40
59063;BME280;44851;45.648;9.004;2023-02-23T18:36:28;98887.94;;;12.46;57.98
59063;BME280;44851;45.648;9.004;2023-02-23T18:38:58;98892.50;;;12.43;57.93
59063;BME280;44851;45.648;9.004;2023-02-23T18:41:24;98890.19;;;12.40;58.04
59063;BME280;44851;45.648;9.004;2023-02-23T18:43:52;98893.78;;;12.39;58.33
59063;BME280;44851;45.648;9.004;2023-02-23T18:46:18;98894.94;;;12.37;58.19
59063;BME280;44851;45.648;9.004;2023-02-23T18:48:48;98894.69;;;12.30;57.79
59063;BME280;44851;45.648;9.004;2023-02-23T18:51:14;98897.31;;;12.30;58.13
59063;BME280;44851;45.648;9.004;2023-02-23T18:53:40;98897.44;;;12.21;58.04
59063;BME280;44851;45.648;9.004;2023-02-23T18:56:09;98896.66;;;12.28;58.31
59063;BME280;44851;45.648;9.004;2023-02-23T18:58:35;98893.50;;;12.25;58.45
59063;BME280;44851;45.648;9.004;2023-02-23T19:01:01;98898.91;;;12.23;58.68
59063;BME280;44851;45.648;9.004;2023-02-23T19:03:34;98893.84;;;12.04;57.85
59063;BME280;44851;45.648;9.004;2023-02-23T19:06:00;98896.63;;;12.02;58.46
59063;BME280;44851;45.648;9.004;2023-02-23T19:08:26;98898.41;;;12.02;58.21
59063;BME280;44851;45.648;9.004;2023-02-23T19:10:56;98896.97;;;11.89;58.32
59063;BME280;44851;45.648;9.004;2023-02-23T19:13:22;98900.03;;;12.21;58.90
59063;BME280;44851;45.648;9.004;2023-02-23T19:15:48;98897.25;;;12.22;58.41
59063;BME280;44851;45.648;9.004;2023-02-23T19:18:14;98898.84;;;12.15;58.37
59063;BME280;44851;45.648;9.004;2023-02-23T19:20:41;98899.81;;;12.14;57.99
59063;BME280;44851;45.648;9.004;2023-02-23T19:23:06;98898.16;;;12.13;59.09
59063;BME280;44851;45.648;9.004;2023-02-23T19:25:34;98898.63;;;12.08;58.44
59063;BME280;44851;45.648;9.004;2023-02-23T19:28:00;98906.59;;;11.89;58.82
59063;BME280;44851;45.648;9.004;2023-02-23T19:30:25;98905.63;;;12.08;58.39
59063;BME280;44851;45.648;9.004;2023-02-23T19:32:51;98907.59;;;12.06;59.20
59063;BME280;44851;45.648;9.004;2023-02-23T19:35:17;98903.19;;;12.06;58.90
59063;BME280;44851;45.648;9.004;2023-02-23T19:37:46;98910.13;;;11.98;59.44
59063;BME280;44851;45.648;9.004;2023-02-23T19:40:14;98907.06;;;11.84;59.48
59063;BME280;44851;45.648;9.004;2023-02-23T19:42:41;98911.47;;;12.02;59.80
59063;BME280;44851;45.648;9.004;2023-02-23T19:45:14;98909.81;;;11.83;59.67
59063;BME280;44851;45.648;9.004;2023-02-23T19:47:40;98910.00;;;11.99;60.22
59063;BME280;44851;45.648;9.004;2023-02-23T19:50:08;98918.09;;;11.96;60.09
59063;BME280;44851;45.648;9.004;2023-02-23T19:52:35;98914.09;;;12.02;59.93
59063;BME280;44851;45.648;9.004;2023-02-23T19:55:06;98907.88;;;12.03;59.98
59063;BME280;44851;45.648;9.004;2023-02-23T19:57:32;98921.91;;;12.02;59.88
59063;BME280;44851;45.648;9.004;2023-02-23T19:59:58;98906.25;;;12.02;59.96
59063;BME280;44851;45.648;9.004;2023-02-23T20:02:24;98917.56;;;11.92;60.81
59063;BME280;44851;45.648;9.004;2023-02-23T20:04:50;98920.84;;;11.95;60.37
59063;BME280;44851;45.648;9.004;2023-02-23T20:07:17;98929.75;;;12.02;60.57
59063;BME280;44851;45.648;9.004;2023-02-23T20:09:43;98931.44;;;11.93;61.01
59063;BME280;44851;45.648;9.004;2023-02-23T20:12:09;98938.56;;;12.01;61.11
59063;BME280;44851;45.648;9.004;2023-02-23T20:14:35;98933.72;;;12.06;60.85
59063;BME280;44851;45.648;9.004;2023-02-23T20:17:01;98935.97;;;12.01;61.25
59063;BME280;44851;45.648;9.004;2023-02-23T20:19:27;98934.53;;;12.06;60.71
59063;BME280;44851;45.648;9.004;2023-02-23T20:21:53;98939.91;;;12.05;60.93
59063;BME280;44851;45.648;9.004;2023-02-23T20:24:19;98942.75;;;12.11;60.42
59063;BME280;44851;45.648;9.004;2023-02-23T20:26:45;98944.66;;;12.09;61.10
59063;BME280;44851;45.648;9.004;2023-02-23T20:29:13;98933.41;;;12.09;61.14
59063;BME280;44851;45.648;9.004;2023-02-23T20:31:45;98937.59;;;12.02;61.82
59063;BME280;44851;45.648;9.004;2023-02-23T20:34:20;98937.88;;;11.99;61.55
59063;BME280;44851;45.648;9.004;2023-02-23T20:36:46;98934.72;;;11.77;61.64
59063;BME280;44851;45.648;9.004;2023-02-23T20:39:13;98941.94;;;11.65;61.64
59063;BME280;44851;45.648;9.004;2023-02-23T20:41:42;98946.22;;;11.84;61.99
59063;BME280;44851;45.648;9.004;2023-02-23T20:44:12;98948.91;;;11.92;62.04
59063;BME280;44851;45.648;9.004;2023-02-23T20:46:38;98948.41;;;11.89;61.62
59063;BME280;44851;45.648;9.004;2023-02-23T20:49:08;98953.56;;;11.99;61.20
59063;BME280;44851;45.648;9.004;2023-02-23T20:51:38;98959.06;;;11.96;60.83
59063;BME280;44851;45.648;9.004;2023-02-23T20:54:05;98956.84;;;12.01;61.42
59063;BME280;44851;45.648;9.004;2023-02-23T20:56:33;98963.31;;;11.97;61.54
59063;BME280;44851;45.648;9.004;2023-02-23T20:59:00;98963.00;;;11.82;62.18
59063;BME280;44851;45.648;9.004;2023-02-23T21:01:26;98961.72;;;11.68;61.83
59063;BME280;44851;45.648;9.004;2023-02-23T21:03:54;98970.22;;;11.70;62.56
59063;BME280;44851;45.648;9.004;2023-02-23T21:06:22;98972.19;;;11.68;62.74
59063;BME280;44851;45.648;9.004;2023-02-23T21:08:49;98966.13;;;11.68;61.94
59063;BME280;44851;45.648;9.004;2023-02-23T21:11:16;98971.28;;;11.77;62.63
59063;BME280;44851;45.648;9.004;2023-02-23T21:13:42;98970.59;;;11.75;62.79
59063;BME280;44851;45.648;9.004;2023-02-23T21:16:12;98962.50;;;11.78;62.41
59063;BME280;44851;45.648;9.004;2023-02-23T21:18:42;98961.25;;;11.55;62.56
59063;BME280;44851;45.648;9.004;2023-02-23T21:21:08;98964.38;;;11.41;63.77
59063;BME280;44851;45.648;9.004;2023-02-23T21:23:37;98953.09;;;11.40;62.70
59063;BME280;44851;45.648;9.004;2023-02-23T21:26:04;98954.06;;;11.39;62.90
59063;BME280;44851;45.648;9.004;2023-02-23T21:28:42;98944.81;;;11.45;63.20
59063;BME280;44851;45.648;9.004;2023-02-23T21:31:10;98945.91;;;11.52;62.85
59063;BME280;44851;45.648;9.004;2023-02-23T21:33:38;98953.03;;;11.50;62.67
59063;BME280;44851;45.648;9.004;2023-02-23T21:36:04;98945.91;;;11.52;62.20
59063;BME280;44851;45.648;9.004;2023-02-23T21:38:30;98948.78;;;11.49;62.80
59063;BME280;44851;45.648;9.004;2023-02-23T21:40:57;98951.63;;;11.55;62.30
59063;BME280;44851;45.648;9.004;2023-02-23T21:43:22;98957.16;;;11.52;62.55
59063;BME280;44851;45.648;9.004;2023-02-23T21:45:48;98946.94;;;11.59;62.37
59063;BME280;44851;45.648;9.004;2023-02-23T21:48:14;98949.94;;;11.64;62.22
59063;BME280;44851;45.648;9.004;2023-02-23T21:50:40;98947.31;;;11.64;62.26
59063;BME280;44851;45.648;9.004;2023-02-23T21:53:06;98956.28;;;11.61;62.78
59063;BME280;44851;45.648;9.004;2023-02-23T21:55:36;98944.72;;;11.64;62.61
59063;BME280;44851;45.648;9.004;2023-02-23T21:58:03;98945.91;;;11.52;63.15
59063;BME280;44851;45.648;9.004;2023-02-23T22:00:32;98945.13;;;11.42;63.40
59063;BME280;44851;45.648;9.004;2023-02-23T22:02:58;98942.75;;;11.48;62.48
59063;BME280;44851;45.648;9.004;2023-02-23T22:05:24;98942.38;;;11.43;62.87
59063;BME280;44851;45.648;9.004;2023-02-23T22:07:51;98941.06;;;11.57;63.20
59063;BME280;44851;45.648;9.004;2023-02-23T22:10:19;98942.00;;;11.56;63.00
59063;BME280;44851;45.648;9.004;2023-02-23T22:12:45;98942.91;;;11.47;63.28
59063;BME280;44851;45.648;9.004;2023-02-23T22:15:11;98931.00;;;11.34;62.77
59063;BME280;44851;45.648;9.004;2023-02-23T22:17:39;98925.41;;;11.29;63.48
59063;BME280;44851;45.648;9.004;2023-02-23T22:20:05;98926.75;;;11.33;63.52
59063;BME280;44851;45.648;9.004;2023-02-23T22:22:34;98926.81;;;11.24;63.68
59063;BME280;44851;45.648;9.004;2023-02-23T22:25:04;98927.81;;;11.13;64.27
59063;BME280;44851;45.648;9.004;2023-02-23T22:27:31;98931.69;;;11.09;63.94
59063;BME280;44851;45.648;9.004;2023-02-23T22:29:57;98930.56;;;11.11;63.84
59063;BME280;44851;45.648;9.004;2023-02-23T22:32:27;98928.91;;;11.20;63.66
59063;BME280;44851;45.648;9.004;2023-02-23T22:34:57;98930.72;;;11.10;63.86
59063;BME280;44851;45.648;9.004;2023-02-23T22:37:23;98937.69;;;11.19;63.82
59063;BME280;44851;45.648;9.004;2023-02-23T22:39:55;98932.56;;;11.27;63.89
59063;BME280;44851;45.648;9.004;2023-02-23T22:42:20;98940.78;;;11.32;63.58
59063;BME280;44851;45.648;9.004;2023-02-23T22:44:49;98938.38;;;11.21;63.30